Akaska, South Dakota
Current Conditions -  °F | °C
As of 11:52 AM on Thursday 29 Jan 2015 (Local Time) from KMBG Reporting Station
Overcast Overcast  
Wind Chill: 21°   Ceiling: 2400
Heat Index: 32°   Visibility: 10mi
Dew Point: 20°   Wind: 16mph
Humidity: 61%   Direction: 360°N
Pressure: 30.46"   Gusts: NA
Location:  45.33°N, 100.12°W
Report Text: KMBG 291752Z AUTO 36014KT 10SM OVC024 00/M07 A3046 RMK AO2 SLP335 T00001067 10000 21017 51017
Loading
Personal Weather Stations






























Interactive Weather Map New forecast layout! Learn more

10-Day Weather Forecast

Advertisements
Track Severe Weather on mobile